createdAt,value
2022-10-10T00:00:49.413Z,99.90
2022-10-10T00:03:17.032Z,99.90
2022-10-10T00:05:44.444Z,99.90
2022-10-10T00:08:11.403Z,99.90
2022-10-10T00:10:38.362Z,99.90
2022-10-10T00:13:05.536Z,99.90
2022-10-10T00:15:32.723Z,99.90
2022-10-10T00:17:59.483Z,99.90
2022-10-10T00:20:26.212Z,99.90
2022-10-10T00:22:53.320Z,99.90
2022-10-10T00:25:20.271Z,99.90
2022-10-10T00:27:46.984Z,99.90
2022-10-10T00:30:13.641Z,99.90
2022-10-10T00:32:40.291Z,99.90
2022-10-10T00:35:07.303Z,99.90
2022-10-10T00:37:34.046Z,99.90
2022-10-10T00:40:00.698Z,99.90
2022-10-10T00:42:27.407Z,99.90
2022-10-10T00:45:22.246Z,99.90
2022-10-10T00:47:51.453Z,99.90
2022-10-10T00:50:20.556Z,99.90
2022-10-10T00:52:47.858Z,99.90
2022-10-10T00:55:14.973Z,99.90
2022-10-10T00:57:42.467Z,99.90
2022-10-10T01:00:10.026Z,99.90
2022-10-10T01:02:36.986Z,99.90
2022-10-10T01:05:04.854Z,99.90
2022-10-10T01:07:33.357Z,99.90
2022-10-10T01:10:05.024Z,99.90
2022-10-10T01:13:01.240Z,99.90
2022-10-10T01:15:57.193Z,99.90
2022-10-10T01:18:52.970Z,99.90
2022-10-10T01:21:37.343Z,99.90
2022-10-10T01:24:30.905Z,99.90
2022-10-10T01:27:21.566Z,99.90
2022-10-10T01:29:52.567Z,99.90
2022-10-10T01:32:38.671Z,99.90
2022-10-10T01:35:14.254Z,99.90
2022-10-10T01:37:58.411Z,99.90
2022-10-10T01:40:33.986Z,99.90
2022-10-10T01:43:04.178Z,99.90
2022-10-10T01:45:33.799Z,99.90
2022-10-10T01:48:03.972Z,99.90
2022-10-10T01:50:35.742Z,99.90
2022-10-10T01:53:07.001Z,99.90
2022-10-10T01:56:08.859Z,99.90
2022-10-10T01:58:47.004Z,99.90
2022-10-10T02:01:25.639Z,99.90
2022-10-10T02:04:25.295Z,99.90
2022-10-10T02:07:09.947Z,99.90
2022-10-10T02:09:39.782Z,99.90
2022-10-10T02:12:09.436Z,99.90
2022-10-10T02:14:44.485Z,99.90
2022-10-10T02:17:14.591Z,99.90
2022-10-10T02:19:52.282Z,99.90
2022-10-10T02:22:20.926Z,99.90
2022-10-10T02:24:47.897Z,99.90
2022-10-10T02:27:23.410Z,99.90
2022-10-10T02:29:52.938Z,99.90
2022-10-10T02:32:30.750Z,99.90
2022-10-10T02:35:03.112Z,99.90
2022-10-10T02:37:30.657Z,99.90
2022-10-10T02:40:01.511Z,99.90
2022-10-10T02:42:29.718Z,99.90
2022-10-10T02:44:56.819Z,99.90
2022-10-10T02:47:23.708Z,99.90
2022-10-10T02:49:50.927Z,99.90
2022-10-10T02:52:17.747Z,99.90
2022-10-10T02:54:44.651Z,99.90
2022-10-10T02:57:12.239Z,99.90
2022-10-10T02:59:38.875Z,99.90
2022-10-10T03:02:06.394Z,99.90
2022-10-10T03:04:33.062Z,99.90
2022-10-10T03:06:59.669Z,99.90
2022-10-10T03:09:26.299Z,99.90
2022-10-10T03:11:52.936Z,99.90
2022-10-10T03:14:19.544Z,99.90
2022-10-10T03:16:46.191Z,99.90
2022-10-10T03:19:12.817Z,99.90
2022-10-10T03:21:39.457Z,99.90
2022-10-10T03:24:06.284Z,99.90
2022-10-10T03:26:33.032Z,99.90
2022-10-10T03:29:01.305Z,99.90
2022-10-10T03:31:27.923Z,99.90
2022-10-10T03:33:54.563Z,99.90
2022-10-10T03:36:21.259Z,99.90
2022-10-10T03:38:47.909Z,99.90
2022-10-10T03:41:14.913Z,99.90
2022-10-10T03:43:41.550Z,99.90
2022-10-10T03:46:11.350Z,99.90
2022-10-10T03:48:40.504Z,99.90
2022-10-10T03:51:07.461Z,99.90
2022-10-10T03:53:34.086Z,99.90
2022-10-10T03:56:00.699Z,99.90
2022-10-10T03:58:27.370Z,99.90
2022-10-10T04:00:58.926Z,99.90
2022-10-10T04:03:26.197Z,99.90
2022-10-10T04:05:53.575Z,99.90
2022-10-10T04:08:20.718Z,99.90
2022-10-10T04:10:52.390Z,99.90
2022-10-10T04:13:19.780Z,99.90
2022-10-10T04:15:49.383Z,99.90
2022-10-10T04:18:16.008Z,99.90
2022-10-10T04:20:42.624Z,99.90
2022-10-10T04:23:09.261Z,99.90
2022-10-10T04:25:35.897Z,99.90
2022-10-10T04:28:02.642Z,99.90
2022-10-10T04:30:33.183Z,99.90
2022-10-10T04:32:59.831Z,99.90
2022-10-10T04:35:26.484Z,99.90
2022-10-10T04:37:53.549Z,99.90
2022-10-10T04:40:25.494Z,99.90
2022-10-10T04:42:53.892Z,99.90
2022-10-10T04:45:20.657Z,99.90
2022-10-10T04:47:47.282Z,99.90
2022-10-10T04:50:13.989Z,99.90
2022-10-10T04:52:40.585Z,99.90
2022-10-10T04:55:07.521Z,99.90
2022-10-10T04:57:34.135Z,99.90
2022-10-10T05:00:00.753Z,99.90
2022-10-10T05:02:27.448Z,99.90
2022-10-10T05:04:54.061Z,99.90
2022-10-10T05:07:20.758Z,99.90
2022-10-10T05:09:47.385Z,99.90
2022-10-10T05:12:14.068Z,99.90
2022-10-10T05:14:44.609Z,99.90
2022-10-10T05:17:14.334Z,99.90
2022-10-10T05:19:41.020Z,99.90
2022-10-10T05:22:07.651Z,99.90
2022-10-10T05:24:34.725Z,99.90
2022-10-10T05:27:01.393Z,99.90
2022-10-10T05:29:28.741Z,99.90
2022-10-10T05:31:55.645Z,99.90
2022-10-10T05:34:22.269Z,99.90
2022-10-10T05:36:48.935Z,99.90
2022-10-10T05:39:15.762Z,99.90
2022-10-10T05:41:42.435Z,99.90
2022-10-10T05:44:10.081Z,99.90
2022-10-10T05:46:36.700Z,99.90
2022-10-10T05:49:03.442Z,99.90
2022-10-10T05:51:30.056Z,99.90
2022-10-10T05:53:57.408Z,99.90
2022-10-10T05:56:24.138Z,99.90
2022-10-10T05:58:51.556Z,99.90
2022-10-10T06:01:18.343Z,99.90
2022-10-10T06:03:44.997Z,99.90
2022-10-10T06:06:11.621Z,99.90
2022-10-10T06:08:38.322Z,99.90
2022-10-10T06:11:11.074Z,99.90
2022-10-10T06:13:38.687Z,99.90
2022-10-10T06:16:05.502Z,99.90
2022-10-10T06:18:32.209Z,99.90
2022-10-10T06:21:07.553Z,99.90
2022-10-10T06:23:35.010Z,99.90
2022-10-10T06:26:01.697Z,99.90
2022-10-10T06:28:28.427Z,99.90
2022-10-10T06:30:58.466Z,99.90
2022-10-10T06:33:25.108Z,99.90
2022-10-10T06:35:51.744Z,99.90
2022-10-10T06:38:18.667Z,99.90
2022-10-10T06:40:45.530Z,99.90
2022-10-10T06:43:14.233Z,99.90
2022-10-10T06:45:43.435Z,99.90
2022-10-10T06:48:11.351Z,99.90
2022-10-10T06:50:38.055Z,99.90
2022-10-10T06:53:05.209Z,99.90
2022-10-10T06:55:32.021Z,99.90
2022-10-10T06:57:58.928Z,99.90
2022-10-10T07:00:25.636Z,99.90
2022-10-10T07:02:52.853Z,99.90
2022-10-10T07:05:19.899Z,99.90
2022-10-10T07:07:46.528Z,99.90
2022-10-10T07:10:15.203Z,99.90
2022-10-10T07:12:44.704Z,99.90
2022-10-10T07:15:12.190Z,99.90
2022-10-10T07:17:39.121Z,99.90
2022-10-10T07:20:06.256Z,99.90
2022-10-10T07:22:33.367Z,99.90
2022-10-10T07:25:00.031Z,99.90
2022-10-10T07:27:26.895Z,99.90
2022-10-10T07:29:53.577Z,99.90
2022-10-10T07:32:20.379Z,99.90
2022-10-10T07:34:47.026Z,99.90
2022-10-10T07:37:13.797Z,99.90
2022-10-10T07:39:40.547Z,99.90
2022-10-10T07:42:07.175Z,99.90
2022-10-10T07:44:34.857Z,99.90
2022-10-10T07:47:01.848Z,99.90
2022-10-10T07:49:28.589Z,99.90
2022-10-10T07:51:58.925Z,99.90
2022-10-10T07:54:28.388Z,99.90
2022-10-10T07:56:55.017Z,99.90
2022-10-10T07:59:22.305Z,99.90
2022-10-10T08:01:49.055Z,99.90
2022-10-10T08:04:15.819Z,99.90
2022-10-10T08:06:42.620Z,99.90
2022-10-10T08:09:09.618Z,99.90
2022-10-10T08:11:36.248Z,99.90
2022-10-10T08:14:03.702Z,99.90
2022-10-10T08:16:30.488Z,99.90
2022-10-10T08:18:57.095Z,99.90
2022-10-10T08:21:23.765Z,99.90
2022-10-10T08:23:50.368Z,99.90
2022-10-10T08:26:19.837Z,99.90
2022-10-10T08:28:48.388Z,99.90
2022-10-10T08:31:18.760Z,99.90
2022-10-10T08:33:46.457Z,99.90
2022-10-10T08:36:16.434Z,99.90
2022-10-10T08:38:43.766Z,99.90
2022-10-10T08:41:36.130Z,99.90
2022-10-10T08:44:25.273Z,99.90
2022-10-10T08:47:02.348Z,99.90
2022-10-10T08:49:42.185Z,99.90
2022-10-10T08:52:35.171Z,99.90
2022-10-10T08:55:07.659Z,99.80
2022-10-10T08:57:49.325Z,96.90
2022-10-10T09:00:21.995Z,91.20
2022-10-10T09:02:54.107Z,90.50
2022-10-10T09:05:41.639Z,85.80
2022-10-10T09:08:37.985Z,86.90
2022-10-10T09:11:19.929Z,86.90
2022-10-10T09:14:23.446Z,78.80
2022-10-10T09:17:14.257Z,77.20
2022-10-10T09:20:04.767Z,77.20
2022-10-10T09:22:46.318Z,76.00
2022-10-10T09:25:22.730Z,78.40
2022-10-10T09:28:03.317Z,78.40
2022-10-10T09:30:32.270Z,77.00
2022-10-10T09:33:03.722Z,77.20
2022-10-10T09:35:35.762Z,75.40
2022-10-10T09:38:25.445Z,79.50
2022-10-10T09:41:00.252Z,75.10
2022-10-10T09:43:31.787Z,71.10
2022-10-10T09:45:58.667Z,69.00
2022-10-10T09:48:40.923Z,68.30
2022-10-10T09:51:15.742Z,66.50
2022-10-10T09:53:44.933Z,67.20
2022-10-10T09:56:34.794Z,69.50
2022-10-10T09:59:01.441Z,72.40
2022-10-10T10:01:33.700Z,74.00
2022-10-10T10:04:33.682Z,77.40
2022-10-10T10:07:23.283Z,81.10
2022-10-10T10:09:52.493Z,81.00
2022-10-10T10:12:24.457Z,80.00
2022-10-10T10:14:57.188Z,82.10
2022-10-10T10:17:24.609Z,84.80
2022-10-10T10:19:51.527Z,87.40
2022-10-10T10:22:26.982Z,88.00
2022-10-10T10:24:54.340Z,87.30
2022-10-10T10:27:26.805Z,87.00
2022-10-10T10:29:55.897Z,87.80
2022-10-10T10:32:45.059Z,79.30
2022-10-10T10:35:35.314Z,77.50
2022-10-10T10:38:20.031Z,77.50
2022-10-10T10:40:56.259Z,73.50
2022-10-10T10:44:04.500Z,69.30
2022-10-10T10:46:54.636Z,67.40
2022-10-10T10:49:26.192Z,62.80
2022-10-10T10:52:14.333Z,61.90
2022-10-10T10:55:30.764Z,60.90
2022-10-10T10:59:10.707Z,56.70
2022-10-10T11:01:56.965Z,55.50
2022-10-10T11:05:23.379Z,56.40
2022-10-10T11:08:20.362Z,55.40
2022-10-10T11:11:22.889Z,54.60
2022-10-10T11:14:30.705Z,52.90
2022-10-10T11:17:09.970Z,52.30
2022-10-10T11:19:47.665Z,52.00
2022-10-10T11:22:19.744Z,52.70
2022-10-10T11:24:52.475Z,52.60
2022-10-10T11:28:04.180Z,52.50
2022-10-10T11:30:36.579Z,51.20
2022-10-10T11:33:19.956Z,51.70
2022-10-10T11:35:48.803Z,51.90
2022-10-10T11:38:31.931Z,51.60
2022-10-10T11:41:07.999Z,51.20
2022-10-10T11:43:54.107Z,51.90
2022-10-10T11:46:20.694Z,51.20
2022-10-10T11:49:02.927Z,51.20
2022-10-10T11:51:45.404Z,51.80
2022-10-10T11:54:36.418Z,53.10
2022-10-10T11:57:12.867Z,52.40
2022-10-10T12:00:13.455Z,51.30
2022-10-10T12:02:42.257Z,52.20
2022-10-10T12:05:26.128Z,52.40
2022-10-10T12:08:02.641Z,52.10
2022-10-10T12:10:49.610Z,53.70
2022-10-10T12:13:16.190Z,53.40
2022-10-10T12:15:49.908Z,53.70
2022-10-10T12:18:37.916Z,53.00
2022-10-10T12:21:10.906Z,52.80
2022-10-10T12:23:38.319Z,53.40
2022-10-10T12:26:05.114Z,54.10
2022-10-10T12:29:05.230Z,54.00
2022-10-10T12:31:39.272Z,54.90
2022-10-10T12:34:09.831Z,56.30
2022-10-10T12:36:39.487Z,57.30
2022-10-10T12:39:07.672Z,58.50
2022-10-10T12:41:49.263Z,58.80
2022-10-10T12:44:22.045Z,60.40
2022-10-10T12:47:14.274Z,63.00
2022-10-10T12:49:53.374Z,63.10
2022-10-10T12:52:47.367Z,65.30
2022-10-10T12:55:32.499Z,66.20
2022-10-10T12:58:03.067Z,68.50
2022-10-10T13:00:45.015Z,73.60
2022-10-10T13:03:20.002Z,74.10
2022-10-10T13:05:49.378Z,74.60
2022-10-10T13:08:20.218Z,74.90
2022-10-10T13:11:11.933Z,76.40
2022-10-10T13:13:40.296Z,77.90
2022-10-10T13:16:15.166Z,79.70
2022-10-10T13:19:02.038Z,81.10
2022-10-10T13:21:32.779Z,85.20
2022-10-10T13:24:03.863Z,81.00
2022-10-10T13:26:38.673Z,84.00
2022-10-10T13:29:21.023Z,86.50
2022-10-10T13:31:48.187Z,84.30
2022-10-10T13:34:22.257Z,87.80
2022-10-10T13:36:55.810Z,88.70
2022-10-10T13:39:22.958Z,88.40
2022-10-10T13:41:50.580Z,90.90
2022-10-10T13:44:23.413Z,91.00
2022-10-10T13:46:50.506Z,91.70
2022-10-10T13:49:26.439Z,91.50
2022-10-10T13:52:22.570Z,92.10
2022-10-10T13:54:49.476Z,92.50
2022-10-10T13:57:26.903Z,91.50
2022-10-10T14:00:07.670Z,92.60
2022-10-10T14:02:37.074Z,93.80
2022-10-10T14:05:16.987Z,93.20
2022-10-10T14:07:49.011Z,94.30
2022-10-10T14:10:22.371Z,93.70
2022-10-10T14:12:57.162Z,94.50
2022-10-10T14:15:41.951Z,94.80
2022-10-10T14:18:15.861Z,94.50
2022-10-10T14:20:42.915Z,94.10
2022-10-10T14:23:09.604Z,94.60
2022-10-10T14:25:39.680Z,94.80
2022-10-10T14:28:06.964Z,95.40
2022-10-10T14:30:36.752Z,95.90
2022-10-10T14:33:13.090Z,95.50
2022-10-10T14:35:40.585Z,95.90
2022-10-10T14:38:07.737Z,96.10
2022-10-10T14:40:34.743Z,96.80
2022-10-10T14:43:01.382Z,96.70
2022-10-10T14:45:28.296Z,97.80
2022-10-10T14:47:55.102Z,98.80
2022-10-10T14:50:26.044Z,98.90
2022-10-10T14:52:52.788Z,98.80
2022-10-10T14:55:19.495Z,98.80
2022-10-10T14:57:46.108Z,98.00
2022-10-10T15:00:19.377Z,98.30
2022-10-10T15:02:46.174Z,98.30
2022-10-10T15:05:13.871Z,98.70
2022-10-10T15:07:41.328Z,99.00
2022-10-10T15:12:56.315Z,99.70
2022-10-10T15:15:22.955Z,99.30
2022-10-10T15:17:49.865Z,99.90
2022-10-10T15:20:16.662Z,99.90
2022-10-10T15:22:45.324Z,99.90
2022-10-10T15:25:12.010Z,99.90
2022-10-10T15:27:38.849Z,99.90
2022-10-10T15:30:06.606Z,99.90
2022-10-10T15:32:33.346Z,99.90
2022-10-10T15:35:00.195Z,99.90
2022-10-10T15:37:27.560Z,99.90
2022-10-10T15:39:54.236Z,99.90
2022-10-10T15:42:22.943Z,99.90
2022-10-10T15:44:50.619Z,99.90
2022-10-10T15:47:18.896Z,99.90
2022-10-10T15:49:45.711Z,99.90
2022-10-10T15:52:12.659Z,99.90
2022-10-10T15:54:39.295Z,99.90
2022-10-10T15:57:06.245Z,99.90
2022-10-10T15:59:33.543Z,99.90
2022-10-10T16:02:01.746Z,99.90
2022-10-10T16:04:28.486Z,99.90
2022-10-10T16:09:42.334Z,99.90
2022-10-10T16:12:09.076Z,99.90
2022-10-10T16:14:35.833Z,99.90
2022-10-10T16:17:02.537Z,99.90
2022-10-10T16:19:29.236Z,99.90
2022-10-10T16:21:56.083Z,99.90
2022-10-10T16:24:22.757Z,99.90
2022-10-10T16:26:49.412Z,99.90
2022-10-10T16:29:18.483Z,99.90
2022-10-10T16:31:45.152Z,99.90
2022-10-10T16:34:12.915Z,99.90
2022-10-10T16:36:39.657Z,99.90
2022-10-10T16:39:06.282Z,99.90
2022-10-10T16:41:49.581Z,99.90
2022-10-10T16:44:17.440Z,99.90
2022-10-10T16:46:44.330Z,99.90
2022-10-10T16:49:13.136Z,99.90
2022-10-10T16:51:39.851Z,99.90
2022-10-10T16:54:07.372Z,99.90
2022-10-10T16:56:34.605Z,99.90
2022-10-10T16:59:01.669Z,99.90
2022-10-10T17:01:28.949Z,99.90
2022-10-10T17:03:57.574Z,99.90
2022-10-10T17:06:24.370Z,99.90
2022-10-10T17:08:53.963Z,99.90
2022-10-10T17:11:22.718Z,99.90
2022-10-10T17:13:50.725Z,99.90
2022-10-10T17:19:10.686Z,99.90
2022-10-10T17:21:37.545Z,99.90
2022-10-10T17:24:04.326Z,99.90
2022-10-10T17:26:30.965Z,99.90
2022-10-10T17:28:59.104Z,99.90
2022-10-10T17:31:26.805Z,99.90
2022-10-10T17:33:54.846Z,99.90
2022-10-10T17:36:26.843Z,99.90
2022-10-10T17:38:55.957Z,99.90
2022-10-10T17:41:23.213Z,99.90
2022-10-10T17:43:49.894Z,99.90
2022-10-10T17:46:39.051Z,99.90
2022-10-10T17:49:07.966Z,99.90
2022-10-10T17:51:35.880Z,99.90
2022-10-10T17:54:04.223Z,99.90
2022-10-10T17:56:31.532Z,99.90
2022-10-10T17:59:00.519Z,99.90
2022-10-10T18:01:27.532Z,99.90
2022-10-10T18:03:54.258Z,99.90
2022-10-10T18:06:22.962Z,99.90
2022-10-10T18:08:51.201Z,99.90
2022-10-10T18:11:21.031Z,99.90
2022-10-10T18:13:47.882Z,99.90
2022-10-10T18:16:20.493Z,99.90
2022-10-10T18:18:51.375Z,99.90
2022-10-10T18:21:20.125Z,99.90
2022-10-10T18:23:46.751Z,99.90
2022-10-10T18:26:19.621Z,99.90
2022-10-10T18:28:46.579Z,99.90
2022-10-10T18:31:16.187Z,99.90
2022-10-10T18:33:46.784Z,99.90
2022-10-10T18:36:16.570Z,99.90
2022-10-10T18:38:43.210Z,99.90
2022-10-10T18:41:12.541Z,99.90
2022-10-10T18:43:39.766Z,99.90
2022-10-10T18:46:09.030Z,99.90
2022-10-10T18:48:36.602Z,99.90
2022-10-10T18:51:06.132Z,99.90
2022-10-10T18:53:37.787Z,99.90
2022-10-10T18:56:05.299Z,99.90
2022-10-10T18:58:33.450Z,99.90
2022-10-10T19:01:24.633Z,99.90
2022-10-10T19:03:53.648Z,99.90
2022-10-10T19:06:22.325Z,99.90
2022-10-10T19:08:50.194Z,99.90
2022-10-10T19:11:28.641Z,99.90
2022-10-10T19:13:56.374Z,99.90
2022-10-10T19:16:23.023Z,99.90
2022-10-10T19:18:49.739Z,99.90
2022-10-10T19:21:16.635Z,99.90
2022-10-10T19:23:44.433Z,99.90
2022-10-10T19:26:14.626Z,99.90
2022-10-10T19:28:42.169Z,99.90
2022-10-10T19:31:14.302Z,99.90
2022-10-10T19:33:41.971Z,99.90
2022-10-10T19:36:10.097Z,99.90
2022-10-10T19:38:39.274Z,99.90
2022-10-10T19:41:08.646Z,99.90
2022-10-10T19:43:35.694Z,99.90
2022-10-10T19:46:07.260Z,99.90
2022-10-10T19:48:34.867Z,99.90
2022-10-10T19:51:10.591Z,99.90
2022-10-10T19:53:38.731Z,99.90
2022-10-10T19:56:08.350Z,99.90
2022-10-10T19:58:36.982Z,99.90
2022-10-10T20:01:09.135Z,99.90
2022-10-10T20:03:36.003Z,99.90
2022-10-10T20:06:03.046Z,99.90
2022-10-10T20:08:29.951Z,99.90
2022-10-10T20:10:56.605Z,99.90
2022-10-10T20:13:23.249Z,99.90
2022-10-10T20:15:50.155Z,99.90
2022-10-10T20:18:18.828Z,99.90
2022-10-10T20:20:48.323Z,99.90
2022-10-10T20:23:16.471Z,99.90
2022-10-10T20:25:44.721Z,99.90
2022-10-10T20:28:12.428Z,99.90
2022-10-10T20:30:41.146Z,99.90
2022-10-10T20:33:07.945Z,99.90
2022-10-10T20:35:35.603Z,99.90
2022-10-10T20:38:04.309Z,99.90
2022-10-10T20:40:31.384Z,99.90
2022-10-10T20:42:58.034Z,99.90
2022-10-10T20:45:24.681Z,99.90
2022-10-10T20:47:51.284Z,99.90
2022-10-10T20:50:17.923Z,99.90
2022-10-10T20:52:44.560Z,99.90
2022-10-10T20:55:11.240Z,99.90
2022-10-10T20:57:37.925Z,99.90
2022-10-10T21:00:05.828Z,99.90
2022-10-10T21:02:32.477Z,99.90
2022-10-10T21:04:59.099Z,99.90
2022-10-10T21:07:27.702Z,99.90
2022-10-10T21:09:54.332Z,99.90
2022-10-10T21:12:21.035Z,99.90
2022-10-10T21:14:47.663Z,99.90
2022-10-10T21:17:14.362Z,99.90
2022-10-10T21:19:41.060Z,99.90
2022-10-10T21:22:07.742Z,99.90
2022-10-10T21:24:34.379Z,99.90
2022-10-10T21:27:01.016Z,99.90
2022-10-10T21:29:27.717Z,99.90
2022-10-10T21:31:54.342Z,99.90
2022-10-10T21:34:21.046Z,99.90
2022-10-10T21:36:47.804Z,99.90
2022-10-10T21:39:14.766Z,99.90
2022-10-10T21:41:41.485Z,99.90
2022-10-10T21:44:09.635Z,99.90
2022-10-10T21:46:37.197Z,99.90
2022-10-10T21:49:07.115Z,99.90
2022-10-10T21:51:37.018Z,99.90
2022-10-10T21:54:03.890Z,99.90
2022-10-10T21:56:30.541Z,99.90
2022-10-10T21:59:01.011Z,99.90
2022-10-10T22:01:28.770Z,99.90
2022-10-10T22:03:56.290Z,99.90
2022-10-10T22:06:25.103Z,99.90
2022-10-10T22:08:54.261Z,99.90
2022-10-10T22:11:23.932Z,99.90
2022-10-10T22:13:51.340Z,99.90
2022-10-10T22:16:18.840Z,99.90
2022-10-10T22:18:45.564Z,99.90
2022-10-10T22:21:15.785Z,99.90
2022-10-10T22:23:43.834Z,99.90
2022-10-10T22:26:12.719Z,99.90
2022-10-10T22:28:39.567Z,99.90
2022-10-10T22:31:12.074Z,99.90
2022-10-10T22:33:38.960Z,99.90
2022-10-10T22:36:06.889Z,99.90
2022-10-10T22:38:37.689Z,99.90
2022-10-10T22:41:04.353Z,99.90
2022-10-10T22:43:30.978Z,99.90
2022-10-10T22:45:57.869Z,99.90
2022-10-10T22:48:24.521Z,99.90
2022-10-10T22:51:10.343Z,99.90
2022-10-10T22:53:38.876Z,99.90
2022-10-10T22:56:06.278Z,99.90
2022-10-10T22:58:33.271Z,99.90
2022-10-10T23:01:13.253Z,99.90
2022-10-10T23:03:40.114Z,99.90
2022-10-10T23:06:07.393Z,99.90
2022-10-10T23:08:34.854Z,99.90
2022-10-10T23:11:01.603Z,99.90
2022-10-10T23:13:28.922Z,99.90
2022-10-10T23:15:55.565Z,99.90
2022-10-10T23:18:22.229Z,99.90
2022-10-10T23:20:49.981Z,99.90
2022-10-10T23:23:18.426Z,99.90
2022-10-10T23:25:46.721Z,99.90
2022-10-10T23:28:15.295Z,99.90
2022-10-10T23:30:44.152Z,99.90
2022-10-10T23:33:11.701Z,99.90
2022-10-10T23:35:38.621Z,99.90
2022-10-10T23:38:05.435Z,99.90
2022-10-10T23:40:32.822Z,99.90
2022-10-10T23:42:59.698Z,99.90
2022-10-10T23:45:28.010Z,99.90
2022-10-10T23:47:54.670Z,99.90
2022-10-10T23:50:21.307Z,99.90
2022-10-10T23:52:47.949Z,99.90
2022-10-10T23:55:14.590Z,99.90
2022-10-10T23:57:41.213Z,99.90
